sensor_id;sensor_type;location;lat;lon;timestamp;P1;durP1;ratioP1;P2;durP2;ratioP2
80392;SDS011;69719;45.544;10.218;2023-10-19T00:00:19;62.20;;;45.15;;
80392;SDS011;69719;45.544;10.218;2023-10-19T00:02:50;66.75;;;47.05;;
80392;SDS011;69719;45.544;10.218;2023-10-19T00:05:16;64.03;;;46.38;;
80392;SDS011;69719;45.544;10.218;2023-10-19T00:07:42;63.42;;;45.50;;
80392;SDS011;69719;45.544;10.218;2023-10-19T00:10:09;58.80;;;44.90;;
80392;SDS011;69719;45.544;10.218;2023-10-19T00:12:40;60.38;;;43.72;;
80392;SDS011;69719;45.544;10.218;2023-10-19T00:15:05;61.88;;;44.35;;
80392;SDS011;69719;45.544;10.218;2023-10-19T00:17:31;60.42;;;45.97;;
80392;SDS011;69719;45.544;10.218;2023-10-19T00:19:57;61.03;;;44.38;;
80392;SDS011;69719;45.544;10.218;2023-10-19T00:22:31;59.53;;;42.95;;
80392;SDS011;69719;45.544;10.218;2023-10-19T00:25:01;58.50;;;44.25;;
80392;SDS011;69719;45.544;10.218;2023-10-19T00:27:28;66.55;;;44.30;;
80392;SDS011;69719;45.544;10.218;2023-10-19T00:29:54;60.38;;;44.85;;
80392;SDS011;69719;45.544;10.218;2023-10-19T00:32:30;62.15;;;45.35;;
80392;SDS011;69719;45.544;10.218;2023-10-19T00:34:56;62.17;;;45.28;;
80392;SDS011;69719;45.544;10.218;2023-10-19T00:37:21;62.92;;;47.05;;
80392;SDS011;69719;45.544;10.218;2023-10-19T00:39:55;64.10;;;47.47;;
80392;SDS011;69719;45.544;10.218;2023-10-19T00:42:21;72.00;;;47.75;;
80392;SDS011;69719;45.544;10.218;2023-10-19T00:44:51;74.07;;;49.20;;
80392;SDS011;69719;45.544;10.218;2023-10-19T00:47:16;65.25;;;47.92;;
80392;SDS011;69719;45.544;10.218;2023-10-19T00:49:47;68.55;;;46.65;;
80392;SDS011;69719;45.544;10.218;2023-10-19T00:52:13;71.68;;;48.85;;
80392;SDS011;69719;45.544;10.218;2023-10-19T00:54:48;71.75;;;48.70;;
80392;SDS011;69719;45.544;10.218;2023-10-19T00:57:15;73.10;;;49.88;;
80392;SDS011;69719;45.544;10.218;2023-10-19T00:59:45;69.15;;;48.97;;
80392;SDS011;69719;45.544;10.218;2023-10-19T01:02:25;70.38;;;50.90;;
80392;SDS011;69719;45.544;10.218;2023-10-19T01:04:51;71.45;;;48.85;;
80392;SDS011;69719;45.544;10.218;2023-10-19T01:07:28;67.68;;;49.78;;
80392;SDS011;69719;45.544;10.218;2023-10-19T01:09:55;77.55;;;52.70;;
80392;SDS011;69719;45.544;10.218;2023-10-19T01:12:25;76.70;;;52.30;;
80392;SDS011;69719;45.544;10.218;2023-10-19T01:15:16;75.35;;;50.80;;
80392;SDS011;69719;45.544;10.218;2023-10-19T01:17:43;79.45;;;51.38;;
80392;SDS011;69719;45.544;10.218;2023-10-19T01:20:14;77.30;;;50.60;;
80392;SDS011;69719;45.544;10.218;2023-10-19T01:22:44;66.72;;;49.30;;
80392;SDS011;69719;45.544;10.218;2023-10-19T01:25:31;69.55;;;49.75;;
80392;SDS011;69719;45.544;10.218;2023-10-19T01:30:42;79.82;;;50.70;;
80392;SDS011;69719;45.544;10.218;2023-10-19T01:33:09;77.40;;;49.72;;
80392;SDS011;69719;45.544;10.218;2023-10-19T01:35:40;79.78;;;51.17;;
80392;SDS011;69719;45.544;10.218;2023-10-19T01:38:25;74.93;;;51.53;;
80392;SDS011;69719;45.544;10.218;2023-10-19T01:40:55;76.22;;;50.50;;
80392;SDS011;69719;45.544;10.218;2023-10-19T01:43:24;75.53;;;52.13;;
80392;SDS011;69719;45.544;10.218;2023-10-19T01:45:53;77.80;;;49.60;;
80392;SDS011;69719;45.544;10.218;2023-10-19T01:48:20;81.35;;;50.35;;
80392;SDS011;69719;45.544;10.218;2023-10-19T01:50:53;82.37;;;50.23;;
80392;SDS011;69719;45.544;10.218;2023-10-19T01:53:18;77.32;;;51.22;;
80392;SDS011;69719;45.544;10.218;2023-10-19T01:55:50;74.65;;;50.35;;
80392;SDS011;69719;45.544;10.218;2023-10-19T01:58:22;74.72;;;50.05;;
80392;SDS011;69719;45.544;10.218;2023-10-19T02:00:50;69.97;;;48.80;;
80392;SDS011;69719;45.544;10.218;2023-10-19T02:03:19;67.20;;;47.10;;
80392;SDS011;69719;45.544;10.218;2023-10-19T02:05:46;71.68;;;49.88;;
80392;SDS011;69719;45.544;10.218;2023-10-19T02:08:14;77.97;;;49.90;;
80392;SDS011;69719;45.544;10.218;2023-10-19T02:10:45;77.95;;;51.72;;
80392;SDS011;69719;45.544;10.218;2023-10-19T02:13:12;77.25;;;50.08;;
80392;SDS011;69719;45.544;10.218;2023-10-19T02:15:42;82.53;;;53.05;;
80392;SDS011;69719;45.544;10.218;2023-10-19T02:18:08;80.30;;;50.42;;
80392;SDS011;69719;45.544;10.218;2023-10-19T02:20:35;79.45;;;53.38;;
80392;SDS011;69719;45.544;10.218;2023-10-19T02:23:05;85.60;;;52.58;;
80392;SDS011;69719;45.544;10.218;2023-10-19T02:25:33;81.20;;;53.03;;
80392;SDS011;69719;45.544;10.218;2023-10-19T02:28:05;83.88;;;52.30;;
80392;SDS011;69719;45.544;10.218;2023-10-19T02:30:34;81.43;;;54.00;;
80392;SDS011;69719;45.544;10.218;2023-10-19T02:33:00;76.05;;;51.35;;
80392;SDS011;69719;45.544;10.218;2023-10-19T02:35:26;85.07;;;53.53;;
80392;SDS011;69719;45.544;10.218;2023-10-19T02:37:53;86.45;;;55.55;;
80392;SDS011;69719;45.544;10.218;2023-10-19T02:40:19;80.38;;;52.10;;
80392;SDS011;69719;45.544;10.218;2023-10-19T02:42:48;81.07;;;52.70;;
80392;SDS011;69719;45.544;10.218;2023-10-19T02:45:15;88.20;;;53.85;;
80392;SDS011;69719;45.544;10.218;2023-10-19T02:47:44;88.93;;;53.55;;
80392;SDS011;69719;45.544;10.218;2023-10-19T02:50:10;85.50;;;51.75;;
80392;SDS011;69719;45.544;10.218;2023-10-19T02:52:41;83.45;;;53.50;;
80392;SDS011;69719;45.544;10.218;2023-10-19T02:55:08;79.85;;;52.33;;
80392;SDS011;69719;45.544;10.218;2023-10-19T02:57:35;86.55;;;53.25;;
80392;SDS011;69719;45.544;10.218;2023-10-19T03:00:06;77.72;;;53.05;;
80392;SDS011;69719;45.544;10.218;2023-10-19T03:02:39;87.95;;;54.10;;
80392;SDS011;69719;45.544;10.218;2023-10-19T03:05:05;87.95;;;55.85;;
80392;SDS011;69719;45.544;10.218;2023-10-19T03:07:39;88.85;;;55.90;;
80392;SDS011;69719;45.544;10.218;2023-10-19T03:10:05;88.65;;;55.28;;
80392;SDS011;69719;45.544;10.218;2023-10-19T03:12:31;89.70;;;54.67;;
80392;SDS011;69719;45.544;10.218;2023-10-19T03:14:57;94.88;;;57.83;;
80392;SDS011;69719;45.544;10.218;2023-10-19T03:17:25;89.57;;;56.05;;
80392;SDS011;69719;45.544;10.218;2023-10-19T03:19:51;93.45;;;57.40;;
80392;SDS011;69719;45.544;10.218;2023-10-19T03:22:17;90.53;;;54.50;;
80392;SDS011;69719;45.544;10.218;2023-10-19T03:24:44;93.53;;;56.22;;
80392;SDS011;69719;45.544;10.218;2023-10-19T03:27:14;96.75;;;58.55;;
80392;SDS011;69719;45.544;10.218;2023-10-19T03:29:41;97.38;;;60.03;;
80392;SDS011;69719;45.544;10.218;2023-10-19T03:32:11;96.32;;;57.70;;
80392;SDS011;69719;45.544;10.218;2023-10-19T03:34:37;97.57;;;59.60;;
80392;SDS011;69719;45.544;10.218;2023-10-19T03:37:03;98.97;;;60.05;;
80392;SDS011;69719;45.544;10.218;2023-10-19T03:39:34;92.15;;;58.85;;
80392;SDS011;69719;45.544;10.218;2023-10-19T03:42:03;98.35;;;59.97;;
80392;SDS011;69719;45.544;10.218;2023-10-19T03:44:31;94.78;;;57.30;;
80392;SDS011;69719;45.544;10.218;2023-10-19T03:47:09;89.63;;;56.03;;
80392;SDS011;69719;45.544;10.218;2023-10-19T03:49:39;89.90;;;52.92;;
80392;SDS011;69719;45.544;10.218;2023-10-19T03:52:06;89.20;;;55.00;;
80392;SDS011;69719;45.544;10.218;2023-10-19T03:54:35;90.70;;;57.30;;
80392;SDS011;69719;45.544;10.218;2023-10-19T03:57:04;88.22;;;54.83;;
80392;SDS011;69719;45.544;10.218;2023-10-19T03:59:40;103.05;;;57.90;;
80392;SDS011;69719;45.544;10.218;2023-10-19T04:02:06;95.63;;;58.17;;
80392;SDS011;69719;45.544;10.218;2023-10-19T04:04:38;95.38;;;58.65;;
80392;SDS011;69719;45.544;10.218;2023-10-19T04:07:14;96.82;;;59.35;;
80392;SDS011;69719;45.544;10.218;2023-10-19T04:09:58;109.35;;;63.85;;
80392;SDS011;69719;45.544;10.218;2023-10-19T04:12:29;114.10;;;61.83;;
80392;SDS011;69719;45.544;10.218;2023-10-19T04:15:00;107.43;;;62.22;;
80392;SDS011;69719;45.544;10.218;2023-10-19T04:17:36;104.40;;;61.15;;
80392;SDS011;69719;45.544;10.218;2023-10-19T04:20:04;95.95;;;56.47;;
80392;SDS011;69719;45.544;10.218;2023-10-19T04:22:45;86.28;;;55.00;;
80392;SDS011;69719;45.544;10.218;2023-10-19T04:25:12;94.70;;;55.92;;
80392;SDS011;69719;45.544;10.218;2023-10-19T04:27:42;100.45;;;57.38;;
80392;SDS011;69719;45.544;10.218;2023-10-19T04:30:12;93.43;;;57.72;;
80392;SDS011;69719;45.544;10.218;2023-10-19T04:32:47;95.28;;;59.97;;
80392;SDS011;69719;45.544;10.218;2023-10-19T04:35:18;99.30;;;57.92;;
80392;SDS011;69719;45.544;10.218;2023-10-19T04:37:51;91.10;;;55.97;;
80392;SDS011;69719;45.544;10.218;2023-10-19T04:40:18;82.45;;;53.97;;
80392;SDS011;69719;45.544;10.218;2023-10-19T04:42:44;79.07;;;52.42;;
80392;SDS011;69719;45.544;10.218;2023-10-19T04:45:11;88.90;;;54.40;;
80392;SDS011;69719;45.544;10.218;2023-10-19T04:47:37;96.18;;;55.97;;
80392;SDS011;69719;45.544;10.218;2023-10-19T04:50:03;86.82;;;55.17;;
80392;SDS011;69719;45.544;10.218;2023-10-19T04:52:33;88.22;;;53.80;;
80392;SDS011;69719;45.544;10.218;2023-10-19T04:54:59;78.53;;;50.65;;
80392;SDS011;69719;45.544;10.218;2023-10-19T04:57:26;76.90;;;49.60;;
80392;SDS011;69719;45.544;10.218;2023-10-19T04:59:51;78.88;;;50.40;;
80392;SDS011;69719;45.544;10.218;2023-10-19T05:02:17;79.53;;;49.55;;
80392;SDS011;69719;45.544;10.218;2023-10-19T05:04:43;75.15;;;50.53;;
80392;SDS011;69719;45.544;10.218;2023-10-19T05:07:10;79.22;;;52.20;;
80392;SDS011;69719;45.544;10.218;2023-10-19T05:09:41;72.97;;;50.55;;
80392;SDS011;69719;45.544;10.218;2023-10-19T05:12:08;77.10;;;49.20;;
80392;SDS011;69719;45.544;10.218;2023-10-19T05:14:43;79.30;;;50.25;;
80392;SDS011;69719;45.544;10.218;2023-10-19T05:17:09;77.72;;;51.50;;
80392;SDS011;69719;45.544;10.218;2023-10-19T05:19:35;80.53;;;52.53;;
80392;SDS011;69719;45.544;10.218;2023-10-19T05:22:02;83.00;;;53.70;;
80392;SDS011;69719;45.544;10.218;2023-10-19T05:24:31;88.60;;;54.38;;
80392;SDS011;69719;45.544;10.218;2023-10-19T05:26:57;98.07;;;56.78;;
80392;SDS011;69719;45.544;10.218;2023-10-19T05:29:22;91.85;;;56.65;;
80392;SDS011;69719;45.544;10.218;2023-10-19T05:31:51;97.88;;;55.83;;
80392;SDS011;69719;45.544;10.218;2023-10-19T05:34:23;91.93;;;54.40;;
80392;SDS011;69719;45.544;10.218;2023-10-19T05:36:49;94.22;;;54.28;;
80392;SDS011;69719;45.544;10.218;2023-10-19T05:39:15;92.22;;;53.30;;
80392;SDS011;69719;45.544;10.218;2023-10-19T05:41:41;90.70;;;54.58;;
80392;SDS011;69719;45.544;10.218;2023-10-19T05:44:07;81.60;;;52.75;;
80392;SDS011;69719;45.544;10.218;2023-10-19T05:46:33;77.20;;;49.85;;
80392;SDS011;69719;45.544;10.218;2023-10-19T05:48:58;77.68;;;51.00;;
80392;SDS011;69719;45.544;10.218;2023-10-19T05:51:26;84.80;;;54.08;;
80392;SDS011;69719;45.544;10.218;2023-10-19T05:53:52;77.18;;;48.67;;
80392;SDS011;69719;45.544;10.218;2023-10-19T05:56:19;82.13;;;48.85;;
80392;SDS011;69719;45.544;10.218;2023-10-19T05:58:46;85.80;;;54.35;;
80392;SDS011;69719;45.544;10.218;2023-10-19T06:01:15;85.90;;;52.85;;
80392;SDS011;69719;45.544;10.218;2023-10-19T06:03:43;80.05;;;50.80;;
80392;SDS011;69719;45.544;10.218;2023-10-19T06:06:10;81.40;;;52.22;;
80392;SDS011;69719;45.544;10.218;2023-10-19T06:08:35;84.20;;;54.00;;
80392;SDS011;69719;45.544;10.218;2023-10-19T06:11:01;80.70;;;51.33;;
80392;SDS011;69719;45.544;10.218;2023-10-19T06:13:26;77.95;;;50.55;;
80392;SDS011;69719;45.544;10.218;2023-10-19T06:15:52;81.20;;;50.58;;
80392;SDS011;69719;45.544;10.218;2023-10-19T06:18:17;75.30;;;49.50;;
80392;SDS011;69719;45.544;10.218;2023-10-19T06:20:43;83.82;;;52.63;;
80392;SDS011;69719;45.544;10.218;2023-10-19T06:23:09;79.32;;;51.33;;
80392;SDS011;69719;45.544;10.218;2023-10-19T06:25:36;77.93;;;50.92;;
80392;SDS011;69719;45.544;10.218;2023-10-19T06:28:02;72.28;;;49.50;;
80392;SDS011;69719;45.544;10.218;2023-10-19T06:30:29;80.10;;;50.25;;
80392;SDS011;69719;45.544;10.218;2023-10-19T06:32:55;69.60;;;47.78;;
80392;SDS011;69719;45.544;10.218;2023-10-19T06:35:26;69.72;;;46.58;;
80392;SDS011;69719;45.544;10.218;2023-10-19T06:37:52;71.28;;;47.30;;
80392;SDS011;69719;45.544;10.218;2023-10-19T06:40:18;64.93;;;44.72;;
80392;SDS011;69719;45.544;10.218;2023-10-19T06:42:44;70.13;;;46.40;;
80392;SDS011;69719;45.544;10.218;2023-10-19T06:45:10;64.43;;;45.05;;
80392;SDS011;69719;45.544;10.218;2023-10-19T06:47:48;65.00;;;45.20;;
80392;SDS011;69719;45.544;10.218;2023-10-19T06:50:16;62.22;;;42.95;;
80392;SDS011;69719;45.544;10.218;2023-10-19T06:52:43;68.57;;;46.45;;
80392;SDS011;69719;45.544;10.218;2023-10-19T06:55:10;64.57;;;45.00;;
80392;SDS011;69719;45.544;10.218;2023-10-19T06:57:43;71.00;;;47.70;;
80392;SDS011;69719;45.544;10.218;2023-10-19T07:00:10;71.05;;;47.17;;
80392;SDS011;69719;45.544;10.218;2023-10-19T07:02:40;70.15;;;48.00;;
80392;SDS011;69719;45.544;10.218;2023-10-19T07:05:07;74.65;;;48.95;;
80392;SDS011;69719;45.544;10.218;2023-10-19T07:07:41;68.32;;;45.45;;
80392;SDS011;69719;45.544;10.218;2023-10-19T07:10:08;69.30;;;47.58;;
80392;SDS011;69719;45.544;10.218;2023-10-19T07:12:35;65.07;;;45.13;;
80392;SDS011;69719;45.544;10.218;2023-10-19T07:15:02;69.00;;;45.53;;
80392;SDS011;69719;45.544;10.218;2023-10-19T07:17:32;70.47;;;48.22;;
80392;SDS011;69719;45.544;10.218;2023-10-19T07:19:59;73.07;;;47.45;;
80392;SDS011;69719;45.544;10.218;2023-10-19T07:22:25;73.68;;;48.25;;
80392;SDS011;69719;45.544;10.218;2023-10-19T07:24:50;73.85;;;47.78;;
80392;SDS011;69719;45.544;10.218;2023-10-19T07:27:16;77.57;;;49.38;;
80392;SDS011;69719;45.544;10.218;2023-10-19T07:29:45;74.55;;;48.97;;
80392;SDS011;69719;45.544;10.218;2023-10-19T07:32:12;78.95;;;49.85;;
80392;SDS011;69719;45.544;10.218;2023-10-19T07:34:39;76.18;;;48.30;;
80392;SDS011;69719;45.544;10.218;2023-10-19T07:37:04;74.05;;;49.25;;
80392;SDS011;69719;45.544;10.218;2023-10-19T07:39:32;73.43;;;49.58;;
80392;SDS011;69719;45.544;10.218;2023-10-19T07:41:59;63.67;;;45.78;;
80392;SDS011;69719;45.544;10.218;2023-10-19T07:44:24;69.13;;;44.90;;
80392;SDS011;69719;45.544;10.218;2023-10-19T07:46:50;63.53;;;43.05;;
80392;SDS011;69719;45.544;10.218;2023-10-19T07:49:17;66.80;;;47.85;;
80392;SDS011;69719;45.544;10.218;2023-10-19T07:51:51;66.60;;;46.20;;
80392;SDS011;69719;45.544;10.218;2023-10-19T07:54:18;67.07;;;47.45;;
80392;SDS011;69719;45.544;10.218;2023-10-19T07:56:45;65.18;;;46.78;;
80392;SDS011;69719;45.544;10.218;2023-10-19T07:59:12;68.97;;;45.58;;
80392;SDS011;69719;45.544;10.218;2023-10-19T08:01:38;72.65;;;47.08;;
80392;SDS011;69719;45.544;10.218;2023-10-19T08:04:04;63.38;;;44.15;;
80392;SDS011;69719;45.544;10.218;2023-10-19T08:06:30;59.00;;;41.67;;
80392;SDS011;69719;45.544;10.218;2023-10-19T08:08:56;59.05;;;40.80;;
80392;SDS011;69719;45.544;10.218;2023-10-19T08:11:23;54.92;;;41.40;;
80392;SDS011;69719;45.544;10.218;2023-10-19T08:13:49;61.97;;;42.15;;
80392;SDS011;69719;45.544;10.218;2023-10-19T08:16:15;61.33;;;42.33;;
80392;SDS011;69719;45.544;10.218;2023-10-19T08:18:42;62.88;;;43.83;;
80392;SDS011;69719;45.544;10.218;2023-10-19T08:21:08;58.10;;;41.80;;
80392;SDS011;69719;45.544;10.218;2023-10-19T08:23:34;58.15;;;41.60;;
80392;SDS011;69719;45.544;10.218;2023-10-19T08:26:03;61.35;;;42.88;;
80392;SDS011;69719;45.544;10.218;2023-10-19T08:28:30;65.30;;;45.08;;
80392;SDS011;69719;45.544;10.218;2023-10-19T08:30:57;59.63;;;43.05;;
80392;SDS011;69719;45.544;10.218;2023-10-19T08:33:26;62.90;;;44.97;;
80392;SDS011;69719;45.544;10.218;2023-10-19T08:35:53;66.35;;;43.90;;
80392;SDS011;69719;45.544;10.218;2023-10-19T08:38:19;68.00;;;46.08;;
80392;SDS011;69719;45.544;10.218;2023-10-19T08:40:45;69.93;;;46.90;;
80392;SDS011;69719;45.544;10.218;2023-10-19T08:43:12;65.03;;;44.35;;
80392;SDS011;69719;45.544;10.218;2023-10-19T08:45:38;74.05;;;49.05;;
80392;SDS011;69719;45.544;10.218;2023-10-19T08:48:04;84.30;;;50.08;;
80392;SDS011;69719;45.544;10.218;2023-10-19T08:50:33;79.47;;;50.47;;
80392;SDS011;69719;45.544;10.218;2023-10-19T08:53:00;72.95;;;50.30;;
80392;SDS011;69719;45.544;10.218;2023-10-19T08:55:30;80.13;;;54.58;;
80392;SDS011;69719;45.544;10.218;2023-10-19T08:57:56;80.43;;;52.85;;
80392;SDS011;69719;45.544;10.218;2023-10-19T09:00:25;80.40;;;51.13;;
80392;SDS011;69719;45.544;10.218;2023-10-19T09:02:53;77.13;;;52.13;;
80392;SDS011;69719;45.544;10.218;2023-10-19T09:05:21;76.30;;;53.47;;
80392;SDS011;69719;45.544;10.218;2023-10-19T09:07:51;82.47;;;56.17;;
80392;SDS011;69719;45.544;10.218;2023-10-19T09:13:04;80.70;;;56.05;;
80392;SDS011;69719;45.544;10.218;2023-10-19T09:18:14;61.55;;;45.75;;
80392;SDS011;69719;45.544;10.218;2023-10-19T09:20:50;55.72;;;40.70;;
80392;SDS011;69719;45.544;10.218;2023-10-19T09:23:27;52.65;;;40.53;;
80392;SDS011;69719;45.544;10.218;2023-10-19T09:25:55;56.53;;;40.88;;
80392;SDS011;69719;45.544;10.218;2023-10-19T09:28:22;55.45;;;39.67;;
80392;SDS011;69719;45.544;10.218;2023-10-19T09:30:49;47.95;;;37.53;;
80392;SDS011;69719;45.544;10.218;2023-10-19T09:33:15;46.67;;;38.85;;
80392;SDS011;69719;45.544;10.218;2023-10-19T09:35:43;48.30;;;39.58;;
80392;SDS011;69719;45.544;10.218;2023-10-19T09:38:13;48.83;;;38.20;;
80392;SDS011;69719;45.544;10.218;2023-10-19T09:40:40;52.33;;;42.03;;
80392;SDS011;69719;45.544;10.218;2023-10-19T09:43:07;50.33;;;39.00;;
80392;SDS011;69719;45.544;10.218;2023-10-19T09:45:41;47.13;;;36.70;;
80392;SDS011;69719;45.544;10.218;2023-10-19T09:48:11;45.13;;;36.40;;
80392;SDS011;69719;45.544;10.218;2023-10-19T09:50:42;46.17;;;36.05;;
80392;SDS011;69719;45.544;10.218;2023-10-19T09:53:10;46.67;;;37.40;;
80392;SDS011;69719;45.544;10.218;2023-10-19T09:55:37;46.40;;;35.72;;
80392;SDS011;69719;45.544;10.218;2023-10-19T09:58:40;55.83;;;39.15;;
80392;SDS011;69719;45.544;10.218;2023-10-19T10:01:00;42.50;;;34.47;;
80392;SDS011;69719;45.544;10.218;2023-10-19T10:06:14;42.75;;;33.75;;
80392;SDS011;69719;45.544;10.218;2023-10-19T10:08:41;42.55;;;32.85;;
80392;SDS011;69719;45.544;10.218;2023-10-19T10:13:42;37.85;;;29.58;;
80392;SDS011;69719;45.544;10.218;2023-10-19T10:16:12;37.88;;;27.92;;
80392;SDS011;69719;45.544;10.218;2023-10-19T10:18:40;37.25;;;28.13;;
80392;SDS011;69719;45.544;10.218;2023-10-19T10:21:13;39.15;;;29.38;;
80392;SDS011;69719;45.544;10.218;2023-10-19T10:23:46;36.88;;;27.92;;
80392;SDS011;69719;45.544;10.218;2023-10-19T10:26:17;36.50;;;29.13;;
80392;SDS011;69719;45.544;10.218;2023-10-19T10:28:47;36.60;;;27.63;;
80392;SDS011;69719;45.544;10.218;2023-10-19T10:31:16;39.55;;;27.38;;
80392;SDS011;69719;45.544;10.218;2023-10-19T10:33:51;38.40;;;28.17;;
80392;SDS011;69719;45.544;10.218;2023-10-19T10:36:21;39.28;;;29.98;;
80392;SDS011;69719;45.544;10.218;2023-10-19T10:38:48;36.08;;;25.17;;
80392;SDS011;69719;45.544;10.218;2023-10-19T10:43:54;35.67;;;26.45;;
80392;SDS011;69719;45.544;10.218;2023-10-19T10:46:21;35.92;;;26.13;;
80392;SDS011;69719;45.544;10.218;2023-10-19T10:48:48;36.35;;;28.63;;
80392;SDS011;69719;45.544;10.218;2023-10-19T10:51:21;34.10;;;26.58;;
80392;SDS011;69719;45.544;10.218;2023-10-19T10:53:56;35.28;;;28.80;;
80392;SDS011;69719;45.544;10.218;2023-10-19T10:56:23;34.88;;;28.45;;
80392;SDS011;69719;45.544;10.218;2023-10-19T10:58:49;39.45;;;31.50;;
80392;SDS011;69719;45.544;10.218;2023-10-19T11:01:15;40.00;;;30.25;;
80392;SDS011;69719;45.544;10.218;2023-10-19T11:04:05;39.80;;;30.40;;
80392;SDS011;69719;45.544;10.218;2023-10-19T11:06:31;42.38;;;34.45;;
80392;SDS011;69719;45.544;10.218;2023-10-19T11:08:57;44.33;;;35.35;;
80392;SDS011;69719;45.544;10.218;2023-10-19T11:11:22;42.13;;;33.83;;
80392;SDS011;69719;45.544;10.218;2023-10-19T11:13:48;43.42;;;34.88;;
80392;SDS011;69719;45.544;10.218;2023-10-19T11:16:21;43.47;;;34.88;;
80392;SDS011;69719;45.544;10.218;2023-10-19T11:18:48;38.78;;;31.85;;
80392;SDS011;69719;45.544;10.218;2023-10-19T11:21:15;41.42;;;32.05;;
80392;SDS011;69719;45.544;10.218;2023-10-19T11:26:21;41.20;;;32.65;;
80392;SDS011;69719;45.544;10.218;2023-10-19T11:28:59;43.75;;;33.00;;
80392;SDS011;69719;45.544;10.218;2023-10-19T11:31:26;34.45;;;27.77;;
80392;SDS011;69719;45.544;10.218;2023-10-19T11:33:53;35.22;;;27.13;;
80392;SDS011;69719;45.544;10.218;2023-10-19T11:36:23;36.60;;;28.20;;
80392;SDS011;69719;45.544;10.218;2023-10-19T11:38:50;35.25;;;27.10;;
80392;SDS011;69719;45.544;10.218;2023-10-19T11:41:17;43.47;;;36.70;;
80392;SDS011;69719;45.544;10.218;2023-10-19T11:43:45;33.25;;;27.60;;
80392;SDS011;69719;45.544;10.218;2023-10-19T11:46:11;41.17;;;34.58;;
80392;SDS011;69719;45.544;10.218;2023-10-19T11:48:37;36.53;;;29.83;;
80392;SDS011;69719;45.544;10.218;2023-10-19T11:51:05;46.05;;;39.13;;
80392;SDS011;69719;45.544;10.218;2023-10-19T11:53:34;34.58;;;26.52;;
80392;SDS011;69719;45.544;10.218;2023-10-19T11:56:02;45.33;;;36.10;;
80392;SDS011;69719;45.544;10.218;2023-10-19T11:58:35;33.20;;;26.20;;
80392;SDS011;69719;45.544;10.218;2023-10-19T12:01:12;32.17;;;25.77;;
80392;SDS011;69719;45.544;10.218;2023-10-19T12:03:40;40.88;;;33.80;;
80392;SDS011;69719;45.544;10.218;2023-10-19T12:06:07;39.70;;;28.75;;
80392;SDS011;69719;45.544;10.218;2023-10-19T12:08:33;26.35;;;19.52;;
80392;SDS011;69719;45.544;10.218;2023-10-19T12:10:59;27.88;;;20.15;;
80392;SDS011;69719;45.544;10.218;2023-10-19T12:13:42;28.27;;;21.55;;
80392;SDS011;69719;45.544;10.218;2023-10-19T12:16:14;24.65;;;20.02;;
80392;SDS011;69719;45.544;10.218;2023-10-19T12:18:41;29.60;;;22.38;;
80392;SDS011;69719;45.544;10.218;2023-10-19T12:21:07;27.60;;;21.58;;
80392;SDS011;69719;45.544;10.218;2023-10-19T12:23:38;27.08;;;21.88;;
80392;SDS011;69719;45.544;10.218;2023-10-19T12:26:04;28.38;;;22.33;;
80392;SDS011;69719;45.544;10.218;2023-10-19T12:28:36;41.30;;;26.52;;
80392;SDS011;69719;45.544;10.218;2023-10-19T12:31:06;28.17;;;22.13;;
80392;SDS011;69719;45.544;10.218;2023-10-19T12:33:38;28.15;;;22.30;;
80392;SDS011;69719;45.544;10.218;2023-10-19T12:36:04;28.15;;;22.20;;
80392;SDS011;69719;45.544;10.218;2023-10-19T12:38:48;27.98;;;21.70;;
80392;SDS011;69719;45.544;10.218;2023-10-19T12:41:14;30.05;;;23.98;;
80392;SDS011;69719;45.544;10.218;2023-10-19T12:43:40;32.47;;;24.33;;
80392;SDS011;69719;45.544;10.218;2023-10-19T12:46:06;31.52;;;23.40;;
80392;SDS011;69719;45.544;10.218;2023-10-19T12:48:33;34.85;;;26.83;;
80392;SDS011;69719;45.544;10.218;2023-10-19T12:51:00;33.78;;;25.50;;
80392;SDS011;69719;45.544;10.218;2023-10-19T12:53:27;32.92;;;25.48;;
80392;SDS011;69719;45.544;10.218;2023-10-19T12:55:52;33.13;;;24.15;;
80392;SDS011;69719;45.544;10.218;2023-10-19T12:58:18;32.83;;;25.25;;
80392;SDS011;69719;45.544;10.218;2023-10-19T13:00:47;31.13;;;26.10;;
80392;SDS011;69719;45.544;10.218;2023-10-19T13:03:16;32.55;;;26.65;;
80392;SDS011;69719;45.544;10.218;2023-10-19T13:05:43;34.40;;;27.15;;
80392;SDS011;69719;45.544;10.218;2023-10-19T13:08:12;39.63;;;28.90;;
80392;SDS011;69719;45.544;10.218;2023-10-19T13:10:39;33.08;;;25.80;;
80392;SDS011;69719;45.544;10.218;2023-10-19T13:13:10;29.58;;;24.02;;
80392;SDS011;69719;45.544;10.218;2023-10-19T13:15:37;31.98;;;24.08;;
80392;SDS011;69719;45.544;10.218;2023-10-19T13:18:05;30.42;;;23.17;;
80392;SDS011;69719;45.544;10.218;2023-10-19T13:20:32;32.88;;;26.50;;
80392;SDS011;69719;45.544;10.218;2023-10-19T13:23:00;34.22;;;26.40;;
80392;SDS011;69719;45.544;10.218;2023-10-19T13:25:29;31.95;;;24.60;;
80392;SDS011;69719;45.544;10.218;2023-10-19T13:28:14;32.17;;;25.10;;
80392;SDS011;69719;45.544;10.218;2023-10-19T13:30:41;33.78;;;26.75;;
80392;SDS011;69719;45.544;10.218;2023-10-19T13:33:08;33.35;;;25.90;;
80392;SDS011;69719;45.544;10.218;2023-10-19T13:35:36;31.50;;;25.48;;
80392;SDS011;69719;45.544;10.218;2023-10-19T13:38:05;33.17;;;27.52;;
80392;SDS011;69719;45.544;10.218;2023-10-19T13:40:36;41.10;;;30.98;;
80392;SDS011;69719;45.544;10.218;2023-10-19T13:43:03;32.42;;;26.05;;
80392;SDS011;69719;45.544;10.218;2023-10-19T13:45:31;32.08;;;26.95;;
80392;SDS011;69719;45.544;10.218;2023-10-19T13:47:58;36.10;;;27.35;;
80392;SDS011;69719;45.544;10.218;2023-10-19T13:50:24;36.30;;;26.90;;
80392;SDS011;69719;45.544;10.218;2023-10-19T13:52:52;31.80;;;26.77;;
80392;SDS011;69719;45.544;10.218;2023-10-19T13:55:21;31.50;;;25.20;;
80392;SDS011;69719;45.544;10.218;2023-10-19T13:57:48;38.58;;;29.92;;
80392;SDS011;69719;45.544;10.218;2023-10-19T14:00:14;38.53;;;29.60;;
80392;SDS011;69719;45.544;10.218;2023-10-19T14:02:58;29.75;;;25.58;;
80392;SDS011;69719;45.544;10.218;2023-10-19T14:05:25;30.55;;;24.80;;
80392;SDS011;69719;45.544;10.218;2023-10-19T14:07:52;32.75;;;26.75;;
80392;SDS011;69719;45.544;10.218;2023-10-19T14:10:18;31.17;;;26.58;;
80392;SDS011;69719;45.544;10.218;2023-10-19T14:12:45;32.17;;;26.85;;
80392;SDS011;69719;45.544;10.218;2023-10-19T14:15:18;33.90;;;25.90;;
80392;SDS011;69719;45.544;10.218;2023-10-19T14:17:45;36.20;;;25.75;;
80392;SDS011;69719;45.544;10.218;2023-10-19T14:20:16;36.10;;;27.92;;
80392;SDS011;69719;45.544;10.218;2023-10-19T14:22:46;34.85;;;27.85;;
80392;SDS011;69719;45.544;10.218;2023-10-19T14:25:14;44.72;;;32.60;;
80392;SDS011;69719;45.544;10.218;2023-10-19T14:27:44;44.20;;;33.38;;
80392;SDS011;69719;45.544;10.218;2023-10-19T14:30:11;69.03;;;43.58;;
80392;SDS011;69719;45.544;10.218;2023-10-19T14:32:41;51.53;;;34.50;;
80392;SDS011;69719;45.544;10.218;2023-10-19T14:37:43;39.22;;;27.83;;